Time;durP1;ratioP1;P1;durP2;ratioP2;P2;SDS_P1;SDS_P2;PMS_P1;PMS_P2;Temp;Humidity;BMP_temperature;BMP_pressure;BME280_temperature;BME280_humidity;BME280_pressure;Samples;Min_cycle;Max_cycle;Signal;HPM_P1;HPM_P2
2023/07/16 00:01:18;;;;;;;3.67;2.73;;;21.80;96.00;;;21.58;68.06;100241.97;5073647;28;20654;-78
2023/07/16 00:03:50;;;;;;;4.23;2.80;;;21.70;95.50;;;21.49;68.29;100287.03;5073839;28;20300;-78
2023/07/16 00:06:24;;;;;;;3.40;2.50;;;21.70;95.50;;;21.50;67.84;100291.41;5073163;28;20320;-78
2023/07/16 00:08:55;;;;;;;2.63;2.30;;;21.60;95.30;;;21.47;67.58;100291.88;5073503;28;20194;-78
2023/07/16 00:11:27;;;;;;;4.10;2.70;;;21.60;95.10;;;21.51;67.25;100294.94;5074384;28;20216;-78
2023/07/16 00:14:01;;;;;;;2.20;2.00;;;21.70;95.10;;;21.54;67.27;100287.13;5073504;28;20236;-78
2023/07/16 00:16:34;;;;;;;3.93;2.27;;;21.70;95.00;;;21.57;67.15;100283.94;5073394;28;20261;-78
2023/07/16 00:19:06;;;;;;;3.87;2.30;;;21.70;94.90;;;21.58;66.83;100285.56;5073113;28;20638;-78
2023/07/16 00:21:39;;;;;;;3.63;2.50;;;21.70;94.80;;;21.59;66.93;100298.13;5073724;28;20200;-78
2023/07/16 00:24:11;;;;;;;3.80;1.97;;;21.70;94.80;;;21.62;67.25;100313.97;5073740;28;20258;-78
2023/07/16 00:26:42;;;;;;;3.50;2.30;;;21.70;94.90;;;21.54;66.79;100306.19;5073004;28;20772;-78
2023/07/16 00:29:14;;;;;;;4.57;2.47;;;21.60;94.80;;;21.51;66.72;100293.06;5073109;28;20189;-78
2023/07/16 00:31:46;;;;;;;2.87;2.30;;;21.60;94.60;;;21.53;66.43;100271.88;5073341;28;20277;-78
2023/07/16 00:34:18;;;;;;;3.23;2.23;;;21.60;94.50;;;21.56;66.36;100276.00;5073297;28;20289;-78
2023/07/16 00:36:51;;;;;;;3.77;2.17;;;21.60;94.50;;;21.58;66.55;100273.84;5072909;28;20267;-78
2023/07/16 00:39:23;;;;;;;3.13;2.00;;;21.70;94.50;;;21.62;66.12;100281.28;5073250;28;20284;-78
2023/07/16 00:41:55;;;;;;;3.07;2.30;;;21.70;94.90;;;21.65;66.50;100271.78;5073084;28;20224;-78
2023/07/16 00:44:27;;;;;;;2.37;2.17;;;21.80;94.40;;;21.65;66.34;100275.34;5073139;28;20308;-78
2023/07/16 00:46:59;;;;;;;2.30;2.10;;;21.80;94.50;;;21.64;66.77;100273.69;5073048;28;20796;-78
2023/07/16 00:49:32;;;;;;;3.33;2.43;;;21.80;94.60;;;21.56;67.33;100249.59;5073140;28;20236;-78
2023/07/16 00:52:08;;;;;;;3.27;1.97;;;21.70;94.90;;;21.55;67.45;100187.16;5072794;28;20533;-78
2023/07/16 00:54:40;;;;;;;2.63;2.43;;;21.60;95.00;;;21.56;67.22;100211.44;5072770;28;20633;-78
2023/07/16 00:57:12;;;;;;;2.53;2.00;;;21.60;95.00;;;21.58;68.78;100258.31;5072998;28;20259;-78
2023/07/16 00:59:44;;;;;;;3.60;2.10;;;21.70;95.50;;;21.57;69.02;100294.84;5072775;28;20189;-78
2023/07/16 01:02:16;;;;;;;3.70;2.60;;;21.70;95.80;;;21.55;68.66;100302.41;5072993;28;20193;-78
2023/07/16 01:04:48;;;;;;;2.50;2.30;;;21.60;95.80;;;21.47;68.58;100293.81;5073034;28;20304;-76
2023/07/16 01:07:26;;;;;;;2.93;2.17;;;21.50;95.70;;;21.46;68.42;100306.59;5076913;28;20190;-75
2023/07/16 01:09:59;;;;;;;2.03;1.83;;;21.50;95.70;;;21.48;68.59;100328.94;5076821;28;20292;-75
2023/07/16 01:12:34;;;;;;;2.77;1.90;;;21.50;95.70;;;21.52;68.58;100351.09;5076823;28;20272;-75
2023/07/16 01:15:07;;;;;;;3.17;2.10;;;21.60;95.80;;;21.37;68.92;100348.06;5076703;28;20209;-75
2023/07/16 01:17:39;;;;;;;3.17;2.20;;;21.40;95.90;;;21.33;68.97;100341.44;5076398;28;20273;-75
2023/07/16 01:20:13;;;;;;;2.23;1.90;;;21.30;96.00;;;21.34;69.23;100349.34;5076306;28;20559;-77
2023/07/16 01:23:10;;;;;;;3.60;2.43;;;21.40;96.10;;;21.26;69.19;100321.69;5076630;28;20193;-77
2023/07/16 01:26:09;;;;;;;4.33;2.30;;;21.30;96.30;;;21.17;69.17;100310.31;5076417;28;20221;-77
2023/07/16 01:29:17;;;;;;;2.83;2.30;;;21.20;96.30;;;21.17;69.20;100319.31;5077017;28;20222;-77
2023/07/16 01:31:53;;;;;;;5.03;2.47;;;21.20;96.10;;;21.20;69.23;100316.09;5076374;28;20284;-77
2023/07/16 01:34:29;;;;;;;3.30;2.20;;;21.30;96.20;;;21.16;69.99;100330.47;5076379;28;20243;-77
2023/07/16 01:37:01;;;;;;;2.97;1.90;;;21.20;96.60;;;21.12;70.35;100340.16;5075908;28;20238;-77
2023/07/16 01:39:33;;;;;;;3.33;2.40;;;21.20;96.90;;;21.12;69.92;100340.16;5075974;28;20585;-77
2023/07/16 01:42:05;;;;;;;4.57;2.33;;;21.20;96.60;;;21.12;69.94;100319.22;5076146;28;20213;-77
2023/07/16 01:44:37;;;;;;;2.73;2.30;;;21.20;96.80;;;21.07;72.69;100332.69;5076359;28;20235;-77
2023/07/16 01:47:16;;;;;;;4.17;2.30;;;21.10;98.00;;;20.92;72.26;100340.50;5076085;28;20236;-77
2023/07/16 01:49:48;;;;;;;2.77;2.07;;;21.00;97.80;;;21.02;71.59;100334.47;5075796;28;20654;-77
2023/07/16 01:52:19;;;;;;;4.27;2.50;;;21.10;97.80;;;21.00;72.26;100326.53;5076064;28;20194;-77
2023/07/16 01:54:51;;;;;;;4.43;2.43;;;21.10;98.00;;;21.03;72.97;100338.81;5076037;28;20223;-77
2023/07/16 01:57:23;;;;;;;2.90;2.20;;;21.10;98.30;;;21.02;73.65;100339.91;5076030;28;20281;-77
2023/07/16 01:59:55;;;;;;;2.60;2.40;;;21.10;98.50;;;20.96;74.56;100349.84;5075949;28;20280;-77
2023/07/16 02:02:28;;;;;;;2.57;2.00;;;21.00;99.10;;;20.85;74.83;100341.69;5075675;28;20225;-77
2023/07/16 02:05:00;;;;;;;3.50;2.33;;;20.90;99.30;;;20.80;74.83;100327.97;5075722;28;20209;-77
2023/07/16 02:07:32;;;;;;;3.70;2.30;;;20.90;99.50;;;20.80;75.28;100309.75;5075832;28;20268;-77
2023/07/16 02:10:04;;;;;;;3.83;2.10;;;20.90;99.80;;;20.79;75.22;100310.00;5076305;28;20190;-77
2023/07/16 02:12:36;;;;;;;4.43;2.57;;;20.80;99.90;;;20.85;75.19;100301.72;5075765;28;20189;-77
2023/07/16 02:15:09;;;;;;;3.23;2.40;;;21.00;99.70;;;20.82;74.79;100298.63;5075604;28;20529;-77
2023/07/16 02:17:42;;;;;;;3.60;2.50;;;20.90;99.50;;;20.90;75.38;100309.13;5075621;28;20221;-77
2023/07/16 02:20:15;;;;;;;4.00;2.53;;;21.10;99.60;;;20.90;74.63;100311.84;5075587;28;20198;-77
2023/07/16 02:22:46;;;;;;;3.23;2.60;;;21.00;99.50;;;20.83;75.40;100319.31;5075203;28;20633;-77
2023/07/16 02:25:18;;;;;;;3.83;2.40;;;20.90;99.70;;;20.86;75.03;100336.00;5075388;28;20286;-77
2023/07/16 02:27:50;;;;;;;2.90;2.30;;;21.00;99.80;;;20.77;76.12;100348.31;5075104;28;20720;-78
2023/07/16 02:30:22;;;;;;;3.10;2.37;;;20.80;99.90;;;20.72;76.01;100351.72;5075417;28;20190;-78
2023/07/16 02:32:56;;;;;;;3.13;2.27;;;20.70;99.90;;;20.71;75.74;100355.53;5075403;28;20194;-78
2023/07/16 02:35:27;;;;;;;3.87;2.80;;;20.80;99.90;;;20.55;77.15;100350.75;5075228;28;20218;-78
2023/07/16 02:37:59;;;;;;;4.13;2.50;;;20.60;99.90;;;20.61;76.59;100332.69;5074939;28;20204;-78
2023/07/16 02:40:31;;;;;;;3.07;2.20;;;20.60;99.90;;;20.59;77.47;100343.78;5075224;28;20190;-78
2023/07/16 02:43:03;;;;;;;4.83;2.57;;;20.60;99.90;;;20.56;76.72;100348.88;5074753;28;20300;-78
2023/07/16 02:45:35;;;;;;;5.20;3.00;;;20.60;99.90;;;20.48;76.81;100344.59;5074954;28;20279;-78
2023/07/16 02:48:10;;;;;;;2.40;2.10;;;20.50;99.90;;;20.55;76.87;100345.31;5075005;28;20217;-78
2023/07/16 02:50:42;;;;;;;3.60;2.60;;;20.60;99.90;;;20.54;74.82;100354.56;5074679;28;20699;-78
2023/07/16 02:53:14;;;;;;;3.10;2.30;;;20.60;99.90;;;20.49;74.91;100356.31;5074589;28;20608;-78
2023/07/16 02:55:48;;;;;;;2.80;2.23;;;20.60;99.70;;;20.52;74.59;100356.69;5074745;28;20228;-78
2023/07/16 02:58:20;;;;;;;3.00;2.60;;;20.60;99.80;;;20.52;74.77;100355.84;5074904;28;20193;-78
2023/07/16 03:00:52;;;;;;;4.70;2.80;;;20.60;99.70;;;20.49;74.32;100357.16;5074511;28;20660;-78
2023/07/16 03:03:25;;;;;;;3.83;2.60;;;20.60;99.90;;;20.44;73.73;100357.03;5074697;28;20221;-78
2023/07/16 03:06:05;;;;;;;4.57;2.50;;;20.60;99.10;;;20.47;73.88;100362.00;5074218;28;20732;-78
2023/07/16 03:08:38;;;;;;;4.57;2.33;;;20.60;99.30;;;20.43;74.39;100352.66;5074648;28;20339;-78
2023/07/16 03:11:10;;;;;;;5.47;2.47;;;20.50;99.40;;;20.42;74.11;100361.03;5074540;28;20277;-78
2023/07/16 03:13:42;;;;;;;3.60;2.30;;;20.50;99.50;;;20.46;74.26;100362.22;5075307;28;20213;-78
2023/07/16 03:16:14;;;;;;;3.27;2.53;;;20.60;99.60;;;20.42;73.98;100369.19;5074325;28;20312;-78
2023/07/16 03:18:49;;;;;;;3.47;2.10;;;20.40;99.40;;;20.31;74.15;100367.28;5074445;28;20208;-78
2023/07/16 03:21:21;;;;;;;3.47;2.30;;;20.40;99.40;;;20.24;73.88;100364.63;5074354;28;20277;-78
2023/07/16 03:23:52;;;;;;;4.60;2.50;;;20.30;99.30;;;20.26;73.57;100367.94;5074289;28;20193;-78
2023/07/16 03:26:24;;;;;;;3.13;2.33;;;20.30;99.30;;;20.21;73.07;100373.25;5074098;28;20229;-78
2023/07/16 03:28:56;;;;;;;3.60;2.23;;;20.30;99.20;;;20.16;73.62;100373.13;5073903;28;20227;-78
2023/07/16 03:31:28;;;;;;;3.43;2.67;;;20.30;99.30;;;20.18;74.13;100381.88;5074176;28;20196;-78
2023/07/16 03:34:02;;;;;;;4.87;2.30;;;20.30;99.40;;;20.20;73.66;100390.63;5073799;28;20212;-76
2023/07/16 03:36:34;;;;;;;4.33;2.43;;;20.30;99.30;;;20.18;73.58;100387.28;5074197;28;20316;-76
2023/07/16 03:39:06;;;;;;;5.57;2.50;;;20.30;99.10;;;20.11;73.35;100392.84;5074031;28;20204;-76
2023/07/16 03:41:38;;;;;;;4.30;2.43;;;20.20;99.30;;;20.15;73.15;100401.34;5073846;28;20300;-76
2023/07/16 03:44:10;;;;;;;3.90;2.40;;;20.30;99.10;;;20.02;72.06;100404.25;5073923;28;20220;-75
2023/07/16 03:46:41;;;;;;;2.40;1.83;;;20.20;98.50;;;20.03;71.61;100405.94;5073413;28;20231;-75
2023/07/16 03:49:15;;;;;;;2.73;2.10;;;20.20;98.30;;;19.95;71.97;100408.94;5073519;28;20197;-75
2023/07/16 03:51:47;;;;;;;3.63;2.27;;;20.10;98.40;;;19.74;72.64;100418.41;5073813;28;20280;-75
2023/07/16 03:54:19;;;;;;;3.63;2.50;;;20.00;98.50;;;19.81;72.50;100415.63;5073744;28;20193;-75
2023/07/16 03:56:51;;;;;;;4.27;2.40;;;20.00;98.60;;;19.72;72.21;100418.66;5073649;28;20228;-75
2023/07/16 03:59:23;;;;;;;3.57;2.47;;;19.90;98.50;;;19.77;72.04;100417.13;5073688;28;20186;-75
2023/07/16 04:01:55;;;;;;;2.93;2.20;;;20.00;98.50;;;19.74;72.06;100427.41;5073644;28;20306;-75
2023/07/16 04:04:28;;;;;;;3.93;2.43;;;20.00;98.40;;;19.79;72.08;100431.31;5073679;28;20537;-75
2023/07/16 04:07:00;;;;;;;4.70;2.50;;;20.00;98.40;;;19.81;71.58;100426.47;5073473;28;20233;-75
2023/07/16 04:09:32;;;;;;;3.00;2.50;;;20.00;98.30;;;19.80;71.64;100427.53;5073379;28;20637;-75
2023/07/16 04:12:04;;;;;;;3.47;2.30;;;20.00;98.10;;;19.85;71.80;100435.84;5073257;28;20284;-75
2023/07/16 04:14:36;;;;;;;2.83;2.13;;;20.00;98.20;;;19.81;71.77;100445.50;5073535;28;20273;-75
2023/07/16 04:17:09;;;;;;;4.10;2.43;;;20.00;98.70;;;19.80;71.97;100441.94;5073416;28;20225;-75
2023/07/16 04:19:43;;;;;;;3.43;2.27;;;20.00;98.30;;;19.79;72.20;100442.19;5073451;28;20201;-75
2023/07/16 04:22:15;;;;;;;5.17;2.53;;;20.00;98.30;;;19.84;72.34;100456.75;5073097;28;20656;-75
2023/07/16 04:24:46;;;;;;;5.40;2.30;;;20.00;98.40;;;19.80;71.79;100447.38;5073103;28;20186;-75
2023/07/16 04:27:18;;;;;;;3.57;2.40;;;20.00;98.20;;;19.70;72.31;100450.63;5073314;28;20240;-75
2023/07/16 04:29:50;;;;;;;4.50;2.30;;;19.90;98.20;;;19.64;72.20;100456.97;5073341;28;20239;-75
2023/07/16 04:32:22;;;;;;;3.77;2.63;;;19.80;98.40;;;19.59;72.38;100455.97;5073329;28;20280;-75
2023/07/16 04:34:56;;;;;;;3.10;2.07;;;19.80;98.40;;;19.59;72.53;100461.41;5073188;28;20189;-75
2023/07/16 04:37:27;;;;;;;2.60;2.30;;;19.80;98.40;;;19.54;72.28;100463.97;5073264;28;20276;-75
2023/07/16 04:39:59;;;;;;;3.30;2.20;;;19.80;98.30;;;19.58;72.08;100463.31;5073378;28;20281;-75
2023/07/16 04:42:31;;;;;;;4.33;2.53;;;19.80;98.30;;;19.53;72.26;100476.72;5077297;28;20312;-75
2023/07/16 04:45:03;;;;;;;4.43;2.47;;;19.80;98.40;;;19.55;71.94;100473.81;5077295;28;20194;-75
2023/07/16 04:47:35;;;;;;;2.60;2.40;;;19.80;98.30;;;19.55;72.44;100480.06;5076892;28;20300;-75
2023/07/16 04:50:10;;;;;;;3.90;2.40;;;19.80;98.40;;;19.55;71.38;100490.09;5076921;28;20551;-75
2023/07/16 04:52:42;;;;;;;5.77;2.90;;;19.80;98.10;;;19.57;72.26;100487.97;5077234;28;20193;-75
2023/07/16 04:55:15;;;;;;;3.13;2.33;;;19.90;98.40;;;19.55;72.23;100495.53;5077100;28;20311;-75
2023/07/16 04:57:46;;;;;;;4.30;2.90;;;19.80;98.40;;;19.52;72.40;100499.50;5077152;28;20186;-75
2023/07/16 05:00:18;;;;;;;4.33;2.63;;;19.80;98.30;;;19.57;72.24;100505.09;5077104;28;20283;-76
2023/07/16 05:02:50;;;;;;;4.47;2.50;;;19.80;98.30;;;19.59;72.73;100504.84;5077052;28;20268;-75
2023/07/16 05:05:24;;;;;;;4.77;2.70;;;19.90;98.50;;;19.55;72.25;100515.38;5076902;28;20231;-75
2023/07/16 05:07:55;;;;;;;4.03;2.77;;;19.80;98.30;;;19.52;72.60;100501.41;5076600;28;20645;-75
2023/07/16 05:10:27;;;;;;;5.33;2.80;;;19.80;98.50;;;19.59;72.42;100502.97;5076562;28;20639;-75
2023/07/16 05:12:59;;;;;;;5.63;2.80;;;19.90;98.40;;;19.60;72.49;100504.66;5076774;28;20221;-75
2023/07/16 05:15:32;;;;;;;4.73;2.93;;;19.90;98.40;;;19.63;73.03;100509.63;5076706;28;20312;-75
2023/07/16 05:18:04;;;;;;;4.40;2.60;;;19.90;98.60;;;19.69;72.98;100507.91;5076724;28;20276;-75
2023/07/16 05:20:38;;;;;;;4.87;2.80;;;20.00;98.60;;;19.71;72.85;100519.38;5076635;28;20189;-75
2023/07/16 05:23:10;;;;;;;4.23;2.40;;;20.00;98.50;;;19.72;71.73;100513.72;5076282;28;20662;-75
2023/07/16 05:25:48;;;;;;;3.57;2.60;;;20.00;98.10;;;19.70;71.71;100521.25;5076747;28;20236;-75
2023/07/16 05:28:21;;;;;;;4.90;2.37;;;20.00;98.00;;;19.72;71.00;100512.91;5076752;28;20195;-75
2023/07/16 05:31:00;;;;;;;4.77;2.60;;;20.00;97.70;;;19.73;71.15;100523.50;5076827;28;20257;-75
2023/07/16 05:33:32;;;;;;;3.87;2.40;;;20.00;97.80;;;19.77;71.23;100520.34;5076138;28;20709;-75
2023/07/16 05:36:05;;;;;;;4.80;2.50;;;20.10;97.80;;;19.79;70.32;100534.56;5076264;28;20307;-75
2023/07/16 05:38:37;;;;;;;5.80;2.07;;;20.10;97.30;;;19.81;70.21;100529.72;5076315;28;20194;-75
2023/07/16 05:41:10;;;;;;;3.70;1.90;;;20.10;97.10;;;19.81;69.61;100535.16;5076157;28;20236;-75
2023/07/16 05:43:42;;;;;;;8.20;2.33;;;20.10;96.80;;;19.79;69.51;100537.25;5076141;28;20603;-75
2023/07/16 05:46:14;;;;;;;4.80;2.10;;;20.10;96.70;;;19.81;69.93;100543.28;5076038;28;20279;-75
2023/07/16 05:48:46;;;;;;;3.63;2.30;;;20.10;97.10;;;19.86;69.68;100536.16;5075831;28;20634;-75
2023/07/16 05:51:20;;;;;;;4.07;2.17;;;20.20;96.90;;;19.87;68.72;100548.66;5075623;28;20225;-75
2023/07/16 05:53:52;;;;;;;3.90;2.20;;;20.20;96.40;;;19.92;68.61;100539.84;5076083;28;20259;-75
2023/07/16 05:56:23;;;;;;;5.27;2.53;;;20.20;96.40;;;19.93;68.05;100557.81;5075959;28;20654;-75
2023/07/16 05:58:56;;;;;;;5.27;2.17;;;20.20;96.00;;;19.98;67.70;100555.22;5075960;28;20284;-75
2023/07/16 06:01:27;;;;;;;3.70;2.30;;;20.30;96.00;;;19.97;67.18;100559.81;5075652;28;20284;-75
2023/07/16 06:03:59;;;;;;;5.90;2.20;;;20.30;95.70;;;19.96;66.57;100562.78;5075563;28;20221;-75
2023/07/16 06:06:33;;;;;;;6.30;2.33;;;20.30;95.30;;;19.96;66.75;100555.47;5075398;28;20705;-75
2023/07/16 06:09:05;;;;;;;4.80;2.93;;;20.30;95.10;;;20.04;66.17;100548.88;5075821;28;20194;-75
2023/07/16 06:11:37;;;;;;;4.30;2.33;;;20.30;94.90;;;20.10;66.52;100556.94;5075773;28;20193;-75
2023/07/16 06:14:09;;;;;;;3.50;2.50;;;20.40;95.20;;;20.14;66.62;100549.19;5075735;28;20252;-75
2023/07/16 06:16:41;;;;;;;4.53;2.73;;;20.40;95.20;;;20.17;65.60;100554.19;5075574;28;20312;-75
2023/07/16 06:19:12;;;;;;;4.97;2.63;;;20.50;94.50;;;20.17;63.96;100559.63;5075347;28;20355;-75
2023/07/16 06:21:46;;;;;;;3.13;2.40;;;20.50;93.70;;;20.18;64.23;100553.94;5075285;28;20695;-77
2023/07/16 06:24:18;;;;;;;6.47;2.50;;;20.50;94.20;;;20.23;64.65;100553.28;5076063;28;20232;-77
2023/07/16 06:26:50;;;;;;;2.93;2.47;;;20.50;93.70;;;20.27;64.55;100559.94;5075345;28;20321;-77
2023/07/16 06:29:22;;;;;;;5.40;2.60;;;20.60;93.80;;;20.36;64.33;100560.47;5075471;28;20284;-77
2023/07/16 06:32:00;;;;;;;6.30;2.30;;;20.70;93.90;;;20.39;63.03;100562.72;5075394;28;20281;-77
2023/07/16 06:34:32;;;;;;;3.83;2.23;;;20.70;93.00;;;20.41;63.36;100571.50;5075389;28;20185;-77
2023/07/16 06:37:06;;;;;;;5.30;2.30;;;20.70;93.20;;;20.43;63.44;100575.63;5075211;28;20222;-77
2023/07/16 06:39:38;;;;;;;3.87;2.33;;;20.70;93.00;;;20.47;62.70;100578.72;5075298;28;20190;-77
2023/07/16 06:42:11;;;;;;;3.97;2.27;;;20.80;93.00;;;20.46;62.33;100575.19;5074993;28;20252;-77
2023/07/16 06:44:43;;;;;;;4.10;2.10;;;20.80;92.60;;;20.53;62.76;100570.47;5074776;28;20643;-77
2023/07/16 06:47:15;;;;;;;6.60;2.70;;;20.80;93.00;;;20.56;62.08;100580.06;5074952;28;20383;-75
2023/07/16 06:49:47;;;;;;;5.73;2.67;;;20.90;92.30;;;20.64;62.12;100582.47;5074710;28;20634;-75
2023/07/16 06:52:27;;;;;;;3.80;2.30;;;21.00;92.30;;;20.67;61.92;100582.00;5074984;28;20186;-75
2023/07/16 06:54:59;;;;;;;6.87;2.50;;;21.00;92.30;;;20.71;62.49;100588.66;5074847;28;20603;-75
2023/07/16 06:57:31;;;;;;;4.63;2.43;;;21.00;92.40;;;20.74;61.32;100589.03;5074910;28;20190;-75
2023/07/16 07:00:06;;;;;;;3.80;2.30;;;21.10;91.90;;;20.75;62.07;100590.66;5074537;28;20189;-75
2023/07/16 07:02:37;;;;;;;4.90;2.30;;;21.10;92.30;;;20.81;61.76;100599.00;5074115;28;20235;-75
2023/07/16 07:05:10;;;;;;;5.33;2.47;;;21.10;92.20;;;20.81;60.99;100599.00;5074600;28;20190;-75
2023/07/16 07:07:44;;;;;;;4.80;2.53;;;21.10;91.60;;;20.74;61.19;100601.81;5074605;28;20213;-75
2023/07/16 07:10:16;;;;;;;4.10;2.27;;;21.10;91.50;;;20.69;61.65;100599.75;5074623;28;20190;-75
2023/07/16 07:12:48;;;;;;;3.50;2.23;;;21.00;91.80;;;20.71;61.29;100605.81;5074561;28;20224;-75
2023/07/16 07:15:20;;;;;;;8.03;2.90;;;21.00;91.80;;;20.71;61.97;100611.25;5074492;28;20242;-75
2023/07/16 07:17:52;;;;;;;3.43;2.70;;;21.00;92.00;;;20.68;62.29;100617.16;5074178;28;20530;-75
2023/07/16 07:20:24;;;;;;;5.90;2.83;;;21.00;92.10;;;20.59;62.37;100617.69;5074412;28;20197;-75
2023/07/16 07:22:58;;;;;;;5.97;2.90;;;20.90;92.10;;;20.63;63.00;100617.00;5074573;28;20194;-75
2023/07/16 07:25:30;;;;;;;5.20;2.60;;;20.90;92.50;;;20.71;62.81;100621.31;5074296;28;20224;-75
2023/07/16 07:28:02;;;;;;;3.53;2.70;;;21.00;92.60;;;20.86;61.90;100618.16;5074315;28;20213;-75
2023/07/16 07:30:34;;;;;;;5.30;2.60;;;21.20;92.20;;;20.93;60.74;100602.56;5074191;28;20285;-76
2023/07/16 07:33:06;;;;;;;5.90;2.33;;;21.30;92.10;;;21.09;61.15;100612.81;5074218;28;20221;-75
2023/07/16 07:35:38;;;;;;;3.73;2.40;;;21.40;91.40;;;21.07;61.04;100620.38;5074051;28;20267;-75
2023/07/16 07:38:12;;;;;;;4.07;2.20;;;21.40;91.90;;;20.94;57.09;100615.13;5074020;28;20216;-75
2023/07/16 07:40:45;;;;;;;6.57;2.43;;;21.30;88.30;;;20.89;56.41;100623.97;5074105;28;20280;-75
2023/07/16 07:43:17;;;;;;;5.10;2.70;;;21.20;87.50;;;20.88;55.32;100621.50;5073866;28;20221;-75
2023/07/16 07:45:48;;;;;;;6.20;2.57;;;21.20;85.90;;;20.95;55.31;100627.69;5073823;28;20793;-75
2023/07/16 07:48:21;;;;;;;5.30;2.60;;;21.20;85.90;;;20.93;54.95;100624.34;5073820;28;20239;-76
2023/07/16 07:50:53;;;;;;;4.60;2.20;;;21.30;85.10;;;20.95;55.84;100628.53;5073810;28;20189;-76
2023/07/16 07:53:27;;;;;;;6.70;2.67;;;21.30;86.20;;;21.00;55.76;100627.81;5073812;28;20202;-76
2023/07/16 07:56:00;;;;;;;4.23;2.57;;;21.30;86.20;;;20.97;53.03;100625.56;5073721;28;20225;-76
2023/07/16 07:58:32;;;;;;;7.53;2.80;;;21.30;82.70;;;20.91;52.21;100631.91;5073779;28;20224;-76
2023/07/16 08:01:07;;;;;;;6.97;2.83;;;21.20;81.60;;;20.84;51.99;100636.63;5073377;28;20590;-76
2023/07/16 08:03:39;;;;;;;8.27;3.33;;;21.10;81.20;;;20.87;53.75;100641.59;5073344;28;20637;-76
2023/07/16 08:06:12;;;;;;;6.10;2.70;;;21.20;83.00;;;20.82;52.43;100638.75;5073830;28;20229;-76
2023/07/16 08:08:46;;;;;;;6.80;2.87;;;21.10;81.80;;;20.78;51.96;100640.28;5073555;28;20218;-76
2023/07/16 08:11:17;;;;;;;6.67;3.10;;;21.10;80.90;;;20.90;51.22;100643.84;5073597;28;20231;-76
2023/07/16 08:13:49;;;;;;;5.40;2.50;;;21.20;80.40;;;21.08;50.81;100646.53;5073383;28;20285;-76
2023/07/16 08:16:21;;;;;;;6.00;3.00;;;21.40;79.20;;;21.20;50.65;100647.44;5073167;28;20776;-76
2023/07/16 08:18:53;;;;;;;6.17;2.80;;;21.50;78.70;;;21.35;50.71;100650.56;5073219;28;20221;-76
2023/07/16 08:21:25;;;;;;;7.77;2.70;;;21.70;78.00;;;21.46;46.71;100648.94;5073428;28;20296;-76
2023/07/16 08:23:58;;;;;;;7.07;3.10;;;21.80;74.00;;;21.51;45.16;100655.34;5073489;28;20194;-76
2023/07/16 08:26:30;;;;;;;8.63;2.90;;;21.80;70.30;;;21.57;44.84;100654.44;5073324;28;20312;-76
2023/07/16 08:29:03;;;;;;;6.87;2.80;;;21.90;70.50;;;21.62;45.23;100651.81;5073235;28;20249;-76
2023/07/16 08:31:37;;;;;;;5.20;2.63;;;21.90;70.80;;;21.75;44.02;100654.31;5073343;28;20244;-76
2023/07/16 08:34:08;;;;;;;6.17;2.77;;;22.10;68.90;;;21.84;43.83;100656.69;5073347;28;20194;-76
2023/07/16 08:36:43;;;;;;;4.13;2.83;;;22.10;68.60;;;21.83;47.03;100661.31;5073230;28;20330;-76
2023/07/16 08:39:19;;;;;;;8.87;3.03;;;22.10;72.30;;;21.91;44.84;100665.63;5073228;28;20197;-76
2023/07/16 08:41:54;;;;;;;6.63;3.13;;;22.20;70.10;;;21.90;44.68;100666.69;5073011;28;20209;-76
2023/07/16 08:44:25;;;;;;;6.17;3.13;;;22.20;69.60;;;22.01;44.98;100665.88;5073418;28;20688;-76
2023/07/16 08:46:59;;;;;;;5.07;3.27;;;22.30;70.10;;;22.05;45.30;100667.91;5073285;28;20370;-76
2023/07/16 08:49:39;;;;;;;8.27;3.70;;;22.40;70.80;;;22.03;45.93;100659.09;5072940;28;20205;-76
2023/07/16 08:52:13;;;;;;;6.30;4.07;;;22.30;70.70;;;22.02;45.32;100673.00;5073370;28;20243;-76
2023/07/16 08:54:47;;;;;;;4.53;2.97;;;22.40;69.70;;;22.05;44.70;100672.50;5072963;28;20709;-77
2023/07/16 08:57:19;;;;;;;6.77;3.70;;;22.40;69.30;;;22.09;43.54;100670.97;5073158;28;20235;-77
2023/07/16 08:59:53;;;;;;;5.57;3.40;;;22.40;67.70;;;22.18;44.38;100677.72;5072986;28;20654;-77
2023/07/16 09:02:27;;;;;;;5.73;2.97;;;22.40;68.30;;;22.31;43.66;100677.47;5073278;28;20200;-77
2023/07/16 09:04:59;;;;;;;8.60;3.60;;;22.60;67.50;;;22.33;43.53;100669.88;5073149;28;20192;-77
2023/07/16 09:07:31;;;;;;;5.83;3.80;;;22.70;67.00;;;22.29;44.94;100667.88;5073247;28;20219;-77
2023/07/16 09:10:05;;;;;;;8.90;5.57;;;22.60;68.50;;;22.23;44.93;100669.66;5072946;28;20710;-77
2023/07/16 09:12:42;;;;;;;8.20;3.30;;;22.50;69.30;;;22.33;44.50;100669.06;5073120;28;20224;-77
2023/07/16 09:15:19;;;;;;;5.17;3.20;;;22.70;68.30;;;22.54;44.14;100682.06;5073310;28;20331;-77
2023/07/16 09:17:56;;;;;;;7.77;2.97;;;22.80;67.50;;;22.58;43.71;100675.06;5073089;28;20190;-77
2023/07/16 09:20:30;;;;;;;4.87;2.90;;;22.90;67.40;;;22.58;43.23;100681.34;5073093;28;20272;-77
2023/07/16 09:23:04;;;;;;;6.90;2.80;;;22.90;66.50;;;22.67;45.13;100666.28;5073186;28;20194;-77
2023/07/16 09:25:39;;;;;;;6.57;2.73;;;23.00;68.30;;;22.84;41.92;100679.19;5072929;28;20258;-77
2023/07/16 09:28:13;;;;;;;8.33;2.90;;;23.10;64.50;;;23.03;41.40;100669.72;5076210;28;20552;-77
2023/07/16 09:30:45;;;;;;;5.03;2.70;;;23.30;64.00;;;22.96;41.04;100675.34;5076750;28;20235;-76
2023/07/16 09:33:20;;;;;;;5.17;2.67;;;23.30;63.00;;;23.03;42.22;100667.00;5076297;28;20782;-76
2023/07/16 09:35:53;;;;;;;6.57;3.40;;;23.30;64.80;;;23.06;42.39;100681.00;5076547;28;20227;-77
2023/07/16 09:38:28;;;;;;;4.63;3.10;;;23.40;65.00;;;22.99;42.38;100674.03;5076618;28;20228;-77
2023/07/16 09:41:03;;;;;;;6.03;3.40;;;23.30;64.70;;;23.06;43.44;100675.53;5076470;28;20185;-77
2023/07/16 09:43:38;;;;;;;4.47;2.83;;;23.30;66.80;;;23.22;42.00;100687.56;5076419;28;20280;-76
2023/07/16 09:46:10;;;;;;;5.93;2.90;;;23.50;64.40;;;23.25;41.73;100684.38;5076555;28;20411;-76
2023/07/16 09:48:42;;;;;;;5.77;3.07;;;23.60;63.60;;;23.46;41.96;100686.41;5076318;28;20248;-76
2023/07/16 09:51:17;;;;;;;4.37;2.90;;;23.70;63.60;;;23.44;38.87;100696.78;5076402;28;20368;-76
2023/07/16 09:53:53;;;;;;;4.53;2.77;;;23.80;59.80;;;23.41;39.33;100700.00;5076001;28;20650;-76
2023/07/16 09:56:30;;;;;;;5.10;2.87;;;23.70;60.20;;;23.45;40.34;100690.25;5076663;28;20260;-77
2023/07/16 09:59:07;;;;;;;6.80;3.63;;;23.70;61.80;;;23.45;40.03;100689.41;5075941;28;20634;-77
2023/07/16 10:01:39;;;;;;;5.37;2.60;;;23.70;60.60;;;23.54;38.92;100691.50;5075789;28;20748;-77
2023/07/16 10:04:20;;;;;;;3.97;2.70;;;23.80;59.60;;;23.51;39.02;100689.25;5075975;28;20285;-77
2023/07/16 10:06:57;;;;;;;9.70;2.70;;;23.80;59.60;;;23.48;39.51;100706.16;5075932;28;20304;-77
2023/07/16 10:09:41;;;;;;;5.87;3.00;;;23.80;60.30;;;23.60;40.73;100708.78;5075957;28;20215;-77
2023/07/16 10:12:25;;;;;;;5.53;3.10;;;23.80;62.40;;;23.70;40.65;100698.03;5076555;28;20193;-77
2023/07/16 10:15:03;;;;;;;4.13;2.70;;;23.90;62.10;;;23.74;38.83;100694.56;5075766;28;20197;-77
2023/07/16 10:17:36;;;;;;;4.23;2.47;;;24.00;59.30;;;23.71;38.91;100689.59;5075877;28;20201;-77
2023/07/16 10:20:12;;;;;;;5.00;2.83;;;24.00;59.50;;;23.76;39.62;100696.25;5075867;28;20228;-77
2023/07/16 10:22:47;;;;;;;7.10;3.63;;;24.00;60.30;;;23.71;39.46;100696.97;5075661;28;20235;-77
2023/07/16 10:25:29;;;;;;;3.70;2.90;;;23.90;59.70;;;23.74;40.57;100702.78;5075599;28;20722;-77
2023/07/16 10:28:03;;;;;;;4.67;2.90;;;24.00;61.10;;;23.68;39.27;100701.03;5075272;28;20638;-75
2023/07/16 10:30:35;;;;;;;5.40;2.87;;;23.90;59.40;;;23.69;39.01;100710.06;5075429;28;20217;-76
2023/07/16 10:33:15;;;;;;;4.60;2.20;;;23.90;60.10;;;23.94;37.05;100698.75;5075562;28;20194;-76
2023/07/16 10:35:48;;;;;;;4.70;2.53;;;24.10;57.30;;;24.08;37.36;100700.03;5075435;28;20283;-76
2023/07/16 10:38:20;;;;;;;4.93;2.77;;;24.30;57.50;;;24.11;37.50;100710.50;5074143;28;20225;-76